Time,TemperatureF,DewpointF,PressureIn,WindDirection,WindDirectionDegrees,WindSpeedMPH,WindSpeedGustMPH,Humidity,HourlyPrecipIn,Conditions,Clouds,dailyrainin,SolarRadiationWatts/m^2,SoftwareType,DateUTC
2013-03-08 00:01:00,22.0,10.0,-100.00,SSE,153,5.0,13.0,60,0.00,,,0.00,0.000000,,2013-03-08 06:01:00,
2013-03-08 00:32:00,22.0,10.0,-100.00,SSE,153,5.0,13.0,60,0.00,,,0.00,0.000000,,2013-03-08 06:32:00,
2013-03-08 00:42:00,22.0,10.0,-100.00,SSE,153,5.0,13.0,60,0.00,,,0.00,0.000000,,2013-03-08 06:42:00,
2013-03-08 00:52:00,22.0,10.0,-100.00,SSE,153,5.0,13.0,60,0.00,,,0.00,0.000000,,2013-03-08 06:52:00,
2013-03-08 01:01:00,20.0,10.0,-100.00,SSE,166,4.0,8.0,65,0.00,,,0.00,0.000000,,2013-03-08 07:01:00,
2013-03-08 01:32:00,20.0,10.0,-100.00,SSE,166,4.0,8.0,65,0.00,,,0.00,0.000000,,2013-03-08 07:32:00,
2013-03-08 01:42:00,20.0,10.0,-100.00,SSE,166,4.0,8.0,65,0.00,,,0.00,0.000000,,2013-03-08 07:42:00,
2013-03-08 01:52:00,20.0,10.0,-100.00,SSE,166,4.0,8.0,65,0.00,,,0.00,0.000000,,2013-03-08 07:52:00,
2013-03-08 02:01:00,21.0,12.0,-100.00,SSE,154,3.0,6.0,68,0.00,,,0.00,0.000000,,2013-03-08 08:01:00,
2013-03-08 02:32:00,21.0,12.0,-100.00,SSE,154,3.0,6.0,68,0.00,,,0.00,0.000000,,2013-03-08 08:32:00,
2013-03-08 02:42:00,21.0,12.0,-100.00,SSE,154,3.0,6.0,68,0.00,,,0.00,0.000000,,2013-03-08 08:42:00,
2013-03-08 02:52:00,21.0,12.0,-100.00,SSE,154,3.0,6.0,68,0.00,,,0.00,0.000000,,2013-03-08 08:52:00,
2013-03-08 03:01:00,22.0,13.0,-100.00,South,183,7.0,10.0,67,0.00,,,0.00,0.000000,,2013-03-08 09:01:00,
2013-03-08 03:32:00,22.0,13.0,-100.00,South,183,7.0,10.0,67,0.00,,,0.00,0.000000,,2013-03-08 09:32:00,
2013-03-08 03:42:00,22.0,13.0,-100.00,South,183,7.0,10.0,67,0.00,,,0.00,0.000000,,2013-03-08 09:42:00,
2013-03-08 03:52:00,22.0,13.0,-100.00,South,183,7.0,10.0,67,0.00,,,0.00,0.000000,,2013-03-08 09:52:00,
2013-03-08 04:01:00,22.0,13.0,-100.00,SSE,160,5.0,13.0,69,0.00,,,0.00,0.000000,,2013-03-08 10:01:00,
2013-03-08 04:32:00,22.0,13.0,-100.00,SSE,160,5.0,13.0,69,0.00,,,0.00,0.000000,,2013-03-08 10:32:00,
2013-03-08 04:42:00,22.0,13.0,-100.00,SSE,160,5.0,13.0,69,0.00,,,0.00,0.000000,,2013-03-08 10:42:00,
2013-03-08 04:52:00,22.0,13.0,-100.00,SSE,160,5.0,13.0,69,0.00,,,0.00,0.000000,,2013-03-08 10:52:00,
2013-03-08 05:01:00,22.0,14.0,-100.00,SW,215,2.0,6.0,71,0.00,,,0.00,0.000000,,2013-03-08 11:01:00,
2013-03-08 05:32:00,22.0,14.0,-100.00,SW,215,2.0,6.0,71,0.00,,,0.00,0.000000,,2013-03-08 11:32:00,
2013-03-08 05:42:00,22.0,14.0,-100.00,SW,215,2.0,6.0,71,0.00,,,0.00,0.000000,,2013-03-08 11:42:00,
2013-03-08 05:52:00,22.0,14.0,-100.00,SW,215,2.0,6.0,71,0.00,,,0.00,0.000000,,2013-03-08 11:52:00,
2013-03-08 06:01:00,22.0,15.0,-100.00,SE,143,3.0,4.0,74,0.00,,,0.00,0.000000,,2013-03-08 12:01:00,
2013-03-08 06:22:00,22.0,15.0,-100.00,SE,143,3.0,4.0,74,0.00,,,0.00,0.000000,,2013-03-08 12:22:00,
2013-03-08 06:32:00,22.0,15.0,-100.00,SE,143,3.0,4.0,74,0.00,,,0.00,0.000000,,2013-03-08 12:32:00,
2013-03-08 06:43:00,22.0,15.0,-100.00,SE,143,3.0,4.0,74,0.00,,,0.00,0.000000,,2013-03-08 12:43:00,
2013-03-08 06:53:00,22.0,15.0,-100.00,SE,143,3.0,4.0,74,0.00,,,0.00,0.000000,,2013-03-08 12:53:00,
2013-03-08 07:01:00,23.0,16.0,-100.00,South,188,4.0,7.0,75,0.00,,,0.00,1.000000,,2013-03-08 13:01:00,
2013-03-08 07:32:00,23.0,16.0,-100.00,South,188,4.0,7.0,75,0.00,,,0.00,1.000000,,2013-03-08 13:32:00,
2013-03-08 07:42:00,23.0,16.0,-100.00,South,188,4.0,7.0,75,0.00,,,0.00,1.000000,,2013-03-08 13:42:00,
2013-03-08 07:52:00,23.0,16.0,-100.00,South,188,4.0,7.0,75,0.00,,,0.00,1.000000,,2013-03-08 13:52:00,
2013-03-08 08:01:00,24.0,18.0,-100.00,SSW,209,4.0,7.0,77,0.00,,,0.00,23.000000,,2013-03-08 14:01:00,
2013-03-08 08:22:00,24.0,18.0,-100.00,SSW,209,4.0,7.0,77,0.00,,,0.00,23.000000,,2013-03-08 14:22:00,
2013-03-08 08:32:00,24.0,18.0,-100.00,SSW,209,4.0,7.0,77,0.00,,,0.00,23.000000,,2013-03-08 14:32:00,
2013-03-08 08:42:00,24.0,18.0,-100.00,SSW,209,4.0,7.0,77,0.00,,,0.00,23.000000,,2013-03-08 14:42:00,
2013-03-08 08:52:00,24.0,18.0,-100.00,SSW,209,4.0,7.0,77,0.00,,,0.00,23.000000,,2013-03-08 14:52:00,
2013-03-08 09:01:00,25.0,19.0,-100.00,SW,216,5.0,10.0,78,0.00,,,0.00,98.000000,,2013-03-08 15:01:00,
2013-03-08 09:32:00,25.0,19.0,-100.00,SW,216,5.0,10.0,78,0.00,,,0.00,98.000000,,2013-03-08 15:32:00,
2013-03-08 09:43:00,25.0,19.0,-100.00,SW,216,5.0,10.0,78,0.00,,,0.00,98.000000,,2013-03-08 15:43:00,
2013-03-08 09:53:00,25.0,19.0,-100.00,SW,216,5.0,10.0,78,0.00,,,0.00,98.000000,,2013-03-08 15:53:00,
2013-03-08 10:01:00,27.0,20.0,-100.00,SW,214,4.0,8.0,76,0.00,,,0.00,183.000000,,2013-03-08 16:01:00,
2013-03-08 10:32:00,27.0,20.0,-100.00,SW,214,4.0,8.0,76,0.00,,,0.00,183.000000,,2013-03-08 16:32:00,
2013-03-08 10:42:00,27.0,20.0,-100.00,SW,214,4.0,8.0,76,0.00,,,0.00,183.000000,,2013-03-08 16:42:00,
2013-03-08 10:52:00,27.0,20.0,-100.00,SW,214,4.0,8.0,76,0.00,,,0.00,183.000000,,2013-03-08 16:52:00,
2013-03-08 11:01:00,31.0,23.0,-100.00,West,265,3.0,6.0,71,0.00,,,0.00,282.000000,,2013-03-08 17:01:00,
2013-03-08 11:32:00,31.0,23.0,-100.00,West,265,3.0,6.0,71,0.00,,,0.00,282.000000,,2013-03-08 17:32:00,
2013-03-08 11:42:00,31.0,23.0,-100.00,West,265,3.0,6.0,71,0.00,,,0.00,282.000000,,2013-03-08 17:42:00,
2013-03-08 11:52:00,31.0,23.0,-100.00,West,265,3.0,6.0,71,0.00,,,0.00,282.000000,,2013-03-08 17:52:00,
2013-03-08 12:01:00,34.0,22.0,-100.00,ESE,108,3.0,4.0,61,0.00,,,0.00,339.000000,,2013-03-08 18:01:00,
2013-03-08 12:22:00,34.0,22.0,-100.00,ESE,108,3.0,4.0,61,0.00,,,0.00,339.000000,,2013-03-08 18:22:00,
2013-03-08 12:32:00,34.0,22.0,-100.00,ESE,108,3.0,4.0,61,0.00,,,0.00,339.000000,,2013-03-08 18:32:00,
2013-03-08 12:42:00,34.0,22.0,-100.00,ESE,108,3.0,4.0,61,0.00,,,0.00,339.000000,,2013-03-08 18:42:00,
2013-03-08 12:52:00,34.0,22.0,-100.00,ESE,108,3.0,4.0,61,0.00,,,0.00,339.000000,,2013-03-08 18:52:00,
2013-03-08 13:01:00,33.0,23.0,-100.00,ESE,105,5.0,8.0,66,0.00,,,0.00,415.000000,,2013-03-08 19:01:00,
2013-03-08 13:32:00,33.0,23.0,-100.00,ESE,105,5.0,8.0,66,0.00,,,0.00,415.000000,,2013-03-08 19:32:00,
2013-03-08 13:42:00,33.0,23.0,-100.00,ESE,105,5.0,8.0,66,0.00,,,0.00,415.000000,,2013-03-08 19:42:00,
2013-03-08 13:52:00,33.0,23.0,-100.00,ESE,105,5.0,8.0,66,0.00,,,0.00,415.000000,,2013-03-08 19:52:00,
2013-03-08 14:01:00,38.0,25.0,-100.00,WSW,239,4.0,9.0,60,0.00,,,0.00,526.000000,,2013-03-08 20:01:00,
2013-03-08 14:22:00,38.0,25.0,-100.00,WSW,239,4.0,9.0,60,0.00,,,0.00,526.000000,,2013-03-08 20:22:00,
2013-03-08 14:32:00,38.0,25.0,-100.00,WSW,239,4.0,9.0,60,0.00,,,0.00,526.000000,,2013-03-08 20:32:00,
2013-03-08 14:42:00,38.0,25.0,-100.00,WSW,239,4.0,9.0,60,0.00,,,0.00,526.000000,,2013-03-08 20:42:00,
2013-03-08 14:53:00,38.0,25.0,-100.00,WSW,239,4.0,9.0,60,0.00,,,0.00,526.000000,,2013-03-08 20:53:00,
2013-03-08 15:01:00,39.0,24.0,-100.00,SW,229,4.0,8.0,55,0.00,,,0.00,523.000000,,2013-03-08 21:01:00,
2013-03-08 15:33:00,39.0,24.0,-100.00,SW,229,4.0,8.0,55,0.00,,,0.00,523.000000,,2013-03-08 21:33:00,
2013-03-08 15:42:00,39.0,24.0,-100.00,SW,229,4.0,8.0,55,0.00,,,0.00,523.000000,,2013-03-08 21:42:00,
2013-03-08 15:52:00,39.0,24.0,-100.00,SW,229,4.0,8.0,55,0.00,,,0.00,523.000000,,2013-03-08 21:52:00,
2013-03-08 16:01:00,36.0,24.0,-100.00,SE,136,5.0,9.0,61,0.00,,,0.00,317.000000,,2013-03-08 22:01:00,
2013-03-08 16:32:00,36.0,24.0,-100.00,SE,136,5.0,9.0,61,0.00,,,0.00,317.000000,,2013-03-08 22:32:00,
2013-03-08 16:42:00,36.0,24.0,-100.00,SE,136,5.0,9.0,61,0.00,,,0.00,317.000000,,2013-03-08 22:42:00,
2013-03-08 16:53:00,36.0,24.0,-100.00,SE,136,5.0,9.0,61,0.00,,,0.00,317.000000,,2013-03-08 22:53:00,
2013-03-08 17:01:00,35.0,24.0,-100.00,ESE,114,4.0,8.0,64,0.00,,,0.00,149.000000,,2013-03-08 23:01:00,
2013-03-08 17:22:00,35.0,24.0,-100.00,ESE,114,4.0,8.0,64,0.00,,,0.00,149.000000,,2013-03-08 23:22:00,
2013-03-08 17:32:00,35.0,24.0,-100.00,ESE,114,4.0,8.0,64,0.00,,,0.00,149.000000,,2013-03-08 23:32:00,
2013-03-08 17:42:00,35.0,24.0,-100.00,ESE,114,4.0,8.0,64,0.00,,,0.00,149.000000,,2013-03-08 23:42:00,
2013-03-08 17:53:00,35.0,24.0,-100.00,ESE,114,4.0,8.0,64,0.00,,,0.00,149.000000,,2013-03-08 23:53:00,
2013-03-08 18:01:00,33.0,24.0,-100.00,ESE,122,4.0,7.0,70,0.00,,,0.00,42.000000,,2013-03-09 00:01:00,
2013-03-08 18:32:00,33.0,24.0,-100.00,ESE,122,4.0,7.0,70,0.00,,,0.00,42.000000,,2013-03-09 00:32:00,
2013-03-08 18:42:00,33.0,24.0,-100.00,ESE,122,4.0,7.0,70,0.00,,,0.00,42.000000,,2013-03-09 00:42:00,
2013-03-08 18:52:00,33.0,24.0,-100.00,ESE,122,4.0,7.0,70,0.00,,,0.00,42.000000,,2013-03-09 00:52:00,
2013-03-08 21:01:00,29.0,23.0,-100.00,East,97,3.0,4.0,79,-99.99,,,0.00,0.000000,,2013-03-09 03:01:00,
2013-03-08 21:32:00,29.0,23.0,-100.00,East,97,3.0,4.0,79,-99.99,,,0.00,0.000000,,2013-03-09 03:32:00,
2013-03-08 21:42:00,29.0,23.0,-100.00,East,97,3.0,4.0,79,-99.99,,,0.00,0.000000,,2013-03-09 03:42:00,
2013-03-08 21:52:00,29.0,23.0,-100.00,East,97,3.0,4.0,79,-99.99,,,0.00,0.000000,,2013-03-09 03:52:00,
2013-03-08 22:01:00,26.0,22.0,-100.00,ENE,75,3.0,5.0,84,0.00,,,0.00,0.000000,,2013-03-09 04:01:00,
2013-03-08 22:22:00,26.0,22.0,-100.00,ENE,75,3.0,5.0,84,0.00,,,0.00,0.000000,,2013-03-09 04:22:00,
2013-03-08 22:32:00,26.0,22.0,-100.00,ENE,75,3.0,5.0,84,0.00,,,0.00,0.000000,,2013-03-09 04:32:00,
2013-03-08 22:42:00,26.0,22.0,-100.00,ENE,75,3.0,5.0,84,0.00,,,0.00,0.000000,,2013-03-09 04:42:00,
2013-03-08 22:52:00,26.0,22.0,-100.00,ENE,75,3.0,5.0,84,0.00,,,0.00,0.000000,,2013-03-09 04:52:00,
2013-03-08 23:01:00,26.0,22.0,-100.00,East,86,3.0,5.0,85,0.00,,,0.00,0.000000,,2013-03-09 05:01:00,
2013-03-08 23:32:00,26.0,22.0,-100.00,East,86,3.0,5.0,85,0.00,,,0.00,0.000000,,2013-03-09 05:32:00,
2013-03-08 23:43:00,26.0,22.0,-100.00,East,86,3.0,5.0,85,0.00,,,0.00,0.000000,,2013-03-09 05:43:00,
2013-03-08 23:53:00,26.0,22.0,-100.00,East,86,3.0,5.0,85,0.00,,,0.00,0.000000,,2013-03-09 05:53:00,